createdAt,value
2019-03-06T00:00:52.283Z,95.88
2019-03-06T00:03:59.408Z,95.70
2019-03-06T00:07:04.737Z,96.13
2019-03-06T00:10:23.537Z,95.11
2019-03-06T00:13:28.805Z,95.24
2019-03-06T00:16:34.092Z,96.38
2019-03-06T00:19:39.493Z,96.65
2019-03-06T00:22:44.720Z,97.15
2019-03-06T00:25:50.037Z,98.13
2019-03-06T00:28:55.259Z,98.41
2019-03-06T00:32:00.541Z,99.48
2019-03-06T00:35:10.034Z,100.44
2019-03-06T00:38:15.473Z,101.04
2019-03-06T00:41:39.730Z,102.02
2019-03-06T00:44:46.698Z,102.01
2019-03-06T00:47:52.100Z,101.85
2019-03-06T00:50:59.650Z,97.76
2019-03-06T00:54:05.063Z,99.26
2019-03-06T00:57:10.295Z,98.55
2019-03-06T01:00:15.878Z,99.06
2019-03-06T01:03:21.419Z,100.04
2019-03-06T01:06:27.774Z,101.61
2019-03-06T01:09:33.145Z,100.91
2019-03-06T01:12:41.245Z,101.20
2019-03-06T01:15:46.687Z,102.07
2019-03-06T01:18:52.903Z,100.48
2019-03-06T01:21:59.833Z,100.08
2019-03-06T01:25:09.402Z,100.28
2019-03-06T01:28:14.763Z,101.03
2019-03-06T01:31:20.144Z,103.26
2019-03-06T01:34:44.318Z,101.52
2019-03-06T01:38:10.983Z,103.04
2019-03-06T01:41:24.079Z,102.56
2019-03-06T01:44:37.001Z,103.39
2019-03-06T01:47:42.438Z,104.10
2019-03-06T01:50:47.867Z,104.28
2019-03-06T01:53:53.154Z,105.24
2019-03-06T01:56:58.562Z,105.45
2019-03-06T02:00:03.768Z,105.52
2019-03-06T02:03:10.775Z,105.57
2019-03-06T02:06:16.059Z,106.00
2019-03-06T02:09:21.503Z,105.68
2019-03-06T02:12:26.744Z,104.46
2019-03-06T02:15:32.147Z,104.92
2019-03-06T02:18:37.378Z,103.93
2019-03-06T02:21:42.652Z,102.81
2019-03-06T02:24:47.923Z,102.04
2019-03-06T02:27:53.262Z,102.63
2019-03-06T02:30:58.678Z,101.43
2019-03-06T02:34:03.967Z,98.08
2019-03-06T02:37:09.244Z,97.39
2019-03-06T02:40:16.372Z,97.65
2019-03-06T02:43:21.661Z,96.12
2019-03-06T02:46:27.283Z,95.75
2019-03-06T02:49:32.496Z,95.83
2019-03-06T02:52:37.749Z,95.34
2019-03-06T02:55:43.072Z,95.50
2019-03-06T02:58:59.513Z,95.46
2019-03-06T03:02:36.084Z,95.06
2019-03-06T03:05:47.388Z,95.20
2019-03-06T03:08:52.833Z,94.29
2019-03-06T03:11:58.653Z,94.32
2019-03-06T03:15:04.142Z,94.21
2019-03-06T03:18:09.857Z,93.06
2019-03-06T03:21:16.268Z,93.34
2019-03-06T03:24:21.540Z,93.32
2019-03-06T03:27:26.809Z,93.69
2019-03-06T03:30:32.193Z,93.14
2019-03-06T03:33:37.539Z,93.47
2019-03-06T03:36:42.857Z,92.54
2019-03-06T03:39:48.242Z,92.67
2019-03-06T03:42:53.579Z,92.79
2019-03-06T03:45:58.811Z,93.63
2019-03-06T03:49:04.158Z,92.85
2019-03-06T03:52:10.269Z,91.57
2019-03-06T03:55:15.666Z,92.14
2019-03-06T03:58:20.994Z,92.74
2019-03-06T04:01:26.317Z,92.36
2019-03-06T04:04:31.603Z,91.69
2019-03-06T04:07:36.939Z,92.01
2019-03-06T04:10:42.272Z,92.00
2019-03-06T04:13:47.523Z,92.29
2019-03-06T04:16:52.924Z,92.03
2019-03-06T04:20:00.339Z,92.09
2019-03-06T04:23:05.332Z,93.44
2019-03-06T04:26:10.977Z,93.72
2019-03-06T04:29:16.353Z,92.70
2019-03-06T04:32:21.682Z,92.48
2019-03-06T04:35:26.941Z,92.93
2019-03-06T04:38:32.153Z,93.28
2019-03-06T04:41:37.388Z,93.96
2019-03-06T04:44:43.520Z,94.38
2019-03-06T04:47:48.821Z,94.38
2019-03-06T04:50:55.178Z,93.73
2019-03-06T04:54:00.518Z,93.92
2019-03-06T04:57:05.797Z,93.41
2019-03-06T05:00:11.878Z,94.44
2019-03-06T05:03:17.162Z,93.72
2019-03-06T05:06:22.572Z,94.40
2019-03-06T05:09:27.853Z,94.90
2019-03-06T05:12:33.297Z,94.15
2019-03-06T05:15:38.616Z,94.47
2019-03-06T05:18:49.988Z,95.13
2019-03-06T05:21:55.225Z,96.13
2019-03-06T05:25:01.608Z,96.31
2019-03-06T05:28:06.938Z,96.35
2019-03-06T05:31:12.212Z,97.31
2019-03-06T05:34:17.473Z,98.36
2019-03-06T05:38:01.887Z,97.84
2019-03-06T05:41:08.212Z,98.60
2019-03-06T05:44:13.445Z,98.66
2019-03-06T05:47:18.685Z,99.83
2019-03-06T05:50:23.950Z,100.24
2019-03-06T05:53:29.211Z,99.92
2019-03-06T05:56:34.608Z,100.48
2019-03-06T05:59:39.852Z,100.17
2019-03-06T06:02:45.108Z,99.99
2019-03-06T06:05:50.437Z,99.91
2019-03-06T06:08:56.061Z,100.37
2019-03-06T06:12:01.448Z,99.92
2019-03-06T06:15:09.736Z,100.36
2019-03-06T06:18:15.121Z,99.66
2019-03-06T06:21:42.603Z,99.59
2019-03-06T06:24:47.964Z,99.69
2019-03-06T06:27:53.325Z,98.54
2019-03-06T06:30:58.763Z,98.39
2019-03-06T06:34:04.023Z,99.05
2019-03-06T06:37:09.486Z,98.58
2019-03-06T06:40:15.197Z,98.05
2019-03-06T06:43:20.502Z,98.24
2019-03-06T06:46:25.830Z,98.50
2019-03-06T06:49:31.306Z,99.21
2019-03-06T06:53:16.875Z,99.07
2019-03-06T06:56:54.693Z,98.45
2019-03-06T07:00:21.316Z,98.51
2019-03-06T07:04:20.560Z,98.04
2019-03-06T07:08:02.977Z,97.21
2019-03-06T07:11:30.008Z,97.88
2019-03-06T07:14:41.672Z,96.57
2019-03-06T07:17:59.952Z,96.34
2019-03-06T07:21:10.920Z,94.89
2019-03-06T07:24:33.646Z,95.32
2019-03-06T07:27:50.756Z,95.32
2019-03-06T07:31:23.760Z,95.44
2019-03-06T07:34:52.065Z,94.28
2019-03-06T07:38:03.051Z,94.53
2019-03-06T07:41:27.246Z,93.51
2019-03-06T07:45:00.751Z,93.61
2019-03-06T07:48:14.851Z,92.35
2019-03-06T07:51:42.361Z,92.32
2019-03-06T07:55:03.157Z,91.46
2019-03-06T07:58:45.455Z,91.12
2019-03-06T08:02:02.972Z,90.72
2019-03-06T08:05:09.123Z,91.78
2019-03-06T08:08:16.644Z,90.84
2019-03-06T08:11:39.761Z,90.11
2019-03-06T08:15:10.111Z,90.74
2019-03-06T08:18:34.272Z,90.24
2019-03-06T08:21:49.304Z,88.72
2019-03-06T08:25:02.060Z,89.26
2019-03-06T08:28:08.501Z,88.80
2019-03-06T08:31:38.009Z,88.67
2019-03-06T08:34:44.275Z,88.20
2019-03-06T08:37:49.676Z,86.34
2019-03-06T08:41:03.896Z,87.50
2019-03-06T08:44:01.972Z,87.05
2019-03-06T08:47:32.205Z,86.96
2019-03-06T08:50:49.871Z,86.32
2019-03-06T08:54:03.254Z,86.72
2019-03-06T08:57:19.445Z,86.23
2019-03-06T09:01:02.297Z,85.57
2019-03-06T09:04:45.178Z,85.43
2019-03-06T09:08:08.231Z,84.41
2019-03-06T09:11:30.320Z,83.44
2019-03-06T09:15:06.959Z,83.50
2019-03-06T09:18:29.763Z,84.18
2019-03-06T09:21:57.001Z,83.17
2019-03-06T09:25:11.395Z,82.92
2019-03-06T09:28:22.724Z,81.88
2019-03-06T09:31:53.989Z,81.17
2019-03-06T09:35:21.255Z,82.41
2019-03-06T09:38:45.309Z,79.60
2019-03-06T09:42:02.942Z,79.78
2019-03-06T09:45:16.800Z,80.46
2019-03-06T09:48:41.194Z,80.07
2019-03-06T09:52:08.676Z,79.09
2019-03-06T09:55:43.522Z,79.38
2019-03-06T09:59:12.050Z,77.93
2019-03-06T10:02:33.585Z,78.22
2019-03-06T10:05:53.003Z,79.30
2019-03-06T10:09:06.032Z,79.19
2019-03-06T10:12:25.826Z,77.76
2019-03-06T10:15:49.069Z,78.62
2019-03-06T10:19:13.572Z,78.74
2019-03-06T10:22:18.922Z,77.58
2019-03-06T10:25:30.113Z,75.84
2019-03-06T10:28:31.490Z,77.60
2019-03-06T10:31:38.596Z,77.65
2019-03-06T10:34:43.678Z,80.03
2019-03-06T10:37:48.986Z,78.27
2019-03-06T10:40:54.345Z,76.89
2019-03-06T10:44:03.069Z,78.16
2019-03-06T10:47:08.451Z,75.75
2019-03-06T10:50:16.110Z,75.38
2019-03-06T10:53:21.610Z,73.75
2019-03-06T10:56:27.087Z,73.45
2019-03-06T10:59:32.412Z,74.40
2019-03-06T11:02:37.736Z,73.22
2019-03-06T11:05:43.092Z,71.75
2019-03-06T11:08:48.855Z,72.68
2019-03-06T11:11:54.869Z,69.97
2019-03-06T11:15:01.131Z,71.06
2019-03-06T11:18:06.520Z,71.04
2019-03-06T11:21:11.952Z,68.15
2019-03-06T11:24:17.277Z,71.39
2019-03-06T11:27:22.632Z,66.21
2019-03-06T11:30:43.844Z,68.25
2019-03-06T11:33:49.212Z,65.86
2019-03-06T11:36:54.694Z,68.44
2019-03-06T11:40:00.328Z,67.68
2019-03-06T11:43:06.733Z,66.83
2019-03-06T11:46:15.864Z,66.55
2019-03-06T11:49:20.817Z,65.29
2019-03-06T11:52:26.141Z,62.55
2019-03-06T11:55:31.765Z,66.10
2019-03-06T11:58:37.159Z,64.40
2019-03-06T12:01:47.833Z,65.00
2019-03-06T12:04:50.751Z,63.78
2019-03-06T12:07:56.064Z,64.15
2019-03-06T12:11:01.489Z,64.16
2019-03-06T12:14:07.140Z,63.65
2019-03-06T12:17:13.179Z,62.81
2019-03-06T12:20:18.511Z,62.04
2019-03-06T12:23:24.150Z,63.66
2019-03-06T12:26:29.798Z,63.77
2019-03-06T12:29:35.109Z,63.32
2019-03-06T12:32:40.510Z,61.79
2019-03-06T12:35:45.754Z,61.24
2019-03-06T12:38:51.244Z,64.40
2019-03-06T12:41:56.545Z,61.46
2019-03-06T12:45:01.786Z,63.23
2019-03-06T12:48:08.759Z,62.87
2019-03-06T12:51:14.134Z,60.73
2019-03-06T12:54:19.754Z,61.33
2019-03-06T12:57:25.939Z,62.75
2019-03-06T13:00:31.225Z,61.38
2019-03-06T13:03:36.516Z,60.90
2019-03-06T13:06:41.777Z,61.72
2019-03-06T13:09:47.124Z,59.77
2019-03-06T13:12:52.484Z,60.80
2019-03-06T13:15:57.774Z,61.45
2019-03-06T13:19:03.275Z,59.99
2019-03-06T13:22:12.199Z,58.97
2019-03-06T13:25:20.514Z,59.99
2019-03-06T13:28:25.773Z,60.52
2019-03-06T13:31:31.028Z,58.16
2019-03-06T13:34:50.917Z,60.88
2019-03-06T13:37:56.218Z,61.93
2019-03-06T13:41:02.543Z,59.99
2019-03-06T13:44:07.869Z,59.76
2019-03-06T13:47:13.195Z,59.62
2019-03-06T13:50:18.604Z,59.45
2019-03-06T13:53:23.928Z,60.04
2019-03-06T13:56:42.534Z,58.85
2019-03-06T13:59:47.939Z,59.79
2019-03-06T14:02:58.334Z,57.84
2019-03-06T14:06:04.027Z,59.09
2019-03-06T14:09:11.696Z,58.55
2019-03-06T14:12:17.019Z,57.98
2019-03-06T14:15:24.366Z,56.08
2019-03-06T14:18:29.714Z,58.70
2019-03-06T14:21:35.034Z,57.82
2019-03-06T14:24:40.290Z,56.74
2019-03-06T14:27:47.207Z,57.26
2019-03-06T14:30:52.809Z,57.01
2019-03-06T14:33:58.156Z,57.33
2019-03-06T14:37:03.823Z,57.47
2019-03-06T14:40:14.394Z,58.46
2019-03-06T14:43:20.832Z,58.97
2019-03-06T14:46:26.203Z,57.38
2019-03-06T14:49:31.490Z,57.12
2019-03-06T14:52:36.869Z,57.90
2019-03-06T14:55:42.278Z,57.81
2019-03-06T14:58:47.616Z,55.68
2019-03-06T15:01:52.951Z,55.83
2019-03-06T15:04:58.299Z,54.79
2019-03-06T15:08:05.583Z,54.50
2019-03-06T15:11:12.878Z,55.32
2019-03-06T15:14:18.127Z,55.63
2019-03-06T15:17:25.672Z,56.21
2019-03-06T15:20:31.103Z,57.12
2019-03-06T15:23:36.607Z,57.18
2019-03-06T15:26:42.156Z,59.17
2019-03-06T15:29:47.497Z,62.13
2019-03-06T15:32:52.943Z,59.83
2019-03-06T15:35:58.628Z,59.86
2019-03-06T15:39:04.922Z,60.26
2019-03-06T15:42:13.491Z,62.04
2019-03-06T15:45:21.640Z,62.65
2019-03-06T15:48:27.015Z,63.81
2019-03-06T15:51:34.598Z,61.96
2019-03-06T15:54:40.034Z,63.18
2019-03-06T15:57:45.382Z,65.46
2019-03-06T16:00:51.000Z,64.79
2019-03-06T16:03:56.476Z,65.11
2019-03-06T16:07:01.866Z,65.52
2019-03-06T16:10:07.581Z,66.44
2019-03-06T16:13:13.016Z,66.36
2019-03-06T16:16:19.333Z,66.11
2019-03-06T16:19:24.969Z,66.96
2019-03-06T16:22:30.296Z,67.34
2019-03-06T16:25:37.943Z,67.72
2019-03-06T16:28:42.750Z,66.96
2019-03-06T16:31:48.190Z,66.65
2019-03-06T16:34:55.156Z,67.26
2019-03-06T16:38:02.556Z,67.35
2019-03-06T16:41:08.390Z,67.15
2019-03-06T16:44:13.743Z,66.61
2019-03-06T16:47:19.080Z,66.41
2019-03-06T16:50:26.217Z,66.82
2019-03-06T16:53:31.644Z,67.10
2019-03-06T16:56:37.064Z,67.18
2019-03-06T16:59:42.461Z,66.35
2019-03-06T17:02:48.209Z,67.77
2019-03-06T17:05:54.689Z,67.56
2019-03-06T17:09:00.048Z,66.21
2019-03-06T17:12:05.608Z,66.59
2019-03-06T17:15:11.914Z,64.93
2019-03-06T17:18:17.264Z,65.63
2019-03-06T17:21:22.599Z,64.48
2019-03-06T17:24:28.070Z,65.96
2019-03-06T17:27:33.431Z,65.36
2019-03-06T17:30:42.344Z,65.67
2019-03-06T17:33:47.778Z,66.25
2019-03-06T17:36:53.273Z,66.70
2019-03-06T17:39:58.615Z,66.30
2019-03-06T17:43:04.663Z,67.45
2019-03-06T17:46:10.308Z,68.50
2019-03-06T17:49:15.652Z,69.06
2019-03-06T17:52:21.010Z,71.30
2019-03-06T17:55:26.590Z,67.55
2019-03-06T17:58:31.991Z,67.67
2019-03-06T18:01:37.490Z,68.24
2019-03-06T18:04:43.007Z,66.50
2019-03-06T18:07:48.337Z,68.35
2019-03-06T18:10:54.702Z,67.54
2019-03-06T18:14:00.063Z,69.96
2019-03-06T18:17:09.488Z,68.28
2019-03-06T18:20:15.553Z,68.71
2019-03-06T18:23:20.827Z,67.09
2019-03-06T18:26:26.483Z,67.11
2019-03-06T18:29:31.879Z,69.38
2019-03-06T18:32:37.354Z,68.03
2019-03-06T18:35:42.815Z,66.67
2019-03-06T18:38:48.228Z,66.01
2019-03-06T18:41:53.619Z,66.03
2019-03-06T18:44:59.015Z,66.10
2019-03-06T18:48:04.757Z,65.16
2019-03-06T18:51:10.016Z,64.03
2019-03-06T18:54:15.526Z,63.58
2019-03-06T18:57:20.912Z,63.55
2019-03-06T19:00:28.015Z,63.49
2019-03-06T19:03:35.811Z,63.29
2019-03-06T19:06:42.255Z,65.64
2019-03-06T19:09:47.983Z,64.55
2019-03-06T19:12:54.409Z,64.46
2019-03-06T19:15:59.817Z,64.01
2019-03-06T19:19:05.500Z,63.16
2019-03-06T19:22:11.009Z,63.93
2019-03-06T19:25:17.813Z,67.13
2019-03-06T19:28:23.614Z,64.90
2019-03-06T19:31:28.849Z,65.58
2019-03-06T19:34:34.284Z,65.40
2019-03-06T19:37:39.671Z,66.34
2019-03-06T19:40:45.059Z,66.77
2019-03-06T19:43:50.467Z,68.69
2019-03-06T19:46:55.948Z,67.39
2019-03-06T19:50:01.409Z,68.11
2019-03-06T19:53:06.749Z,67.03
2019-03-06T19:56:13.641Z,66.24
2019-03-06T19:59:18.994Z,67.28
2019-03-06T20:02:24.396Z,67.66
2019-03-06T20:05:35.245Z,70.95
2019-03-06T20:08:41.398Z,68.82
2019-03-06T20:11:46.821Z,67.81
2019-03-06T20:14:52.288Z,70.66
2019-03-06T20:17:57.698Z,71.27
2019-03-06T20:21:03.117Z,70.35
2019-03-06T20:24:09.852Z,70.92
2019-03-06T20:27:15.339Z,75.71
2019-03-06T20:30:21.633Z,80.47
2019-03-06T20:33:27.018Z,74.58
2019-03-06T20:36:32.353Z,72.80
2019-03-06T20:39:37.709Z,72.08
2019-03-06T20:42:43.090Z,72.04
2019-03-06T20:45:48.571Z,74.88
2019-03-06T20:48:54.137Z,80.01
2019-03-06T20:52:00.515Z,78.29
2019-03-06T20:55:06.381Z,79.17
2019-03-06T20:58:11.764Z,75.90
2019-03-06T21:01:17.115Z,76.29
2019-03-06T21:04:22.455Z,77.03
2019-03-06T21:07:27.768Z,77.46
2019-03-06T21:10:33.118Z,75.25
2019-03-06T21:13:38.489Z,78.91
2019-03-06T21:16:43.811Z,78.04
2019-03-06T21:19:49.178Z,79.45
2019-03-06T21:22:56.737Z,78.65
2019-03-06T21:26:02.158Z,77.69
2019-03-06T21:29:10.306Z,78.20
2019-03-06T21:32:15.706Z,76.93
2019-03-06T21:35:22.206Z,77.39
2019-03-06T21:38:27.544Z,78.30
2019-03-06T21:41:32.898Z,76.55
2019-03-06T21:44:38.247Z,77.49
2019-03-06T21:47:43.661Z,76.49
2019-03-06T21:50:49.153Z,78.31
2019-03-06T21:53:54.526Z,79.42
2019-03-06T21:56:59.883Z,78.38
2019-03-06T22:00:05.887Z,78.06
2019-03-06T22:03:11.677Z,78.77
2019-03-06T22:06:17.819Z,77.29
2019-03-06T22:09:23.387Z,78.74
2019-03-06T22:12:28.726Z,78.88
2019-03-06T22:15:34.398Z,79.45
2019-03-06T22:18:39.747Z,80.96
2019-03-06T22:21:46.317Z,80.22
2019-03-06T22:24:51.641Z,82.70
2019-03-06T22:27:57.088Z,84.37
2019-03-06T22:31:02.403Z,85.11
2019-03-06T22:34:07.752Z,85.76
2019-03-06T22:37:13.207Z,86.63
2019-03-06T22:40:18.593Z,86.97
2019-03-06T22:43:23.966Z,87.07
2019-03-06T22:46:29.290Z,87.78
2019-03-06T22:49:34.606Z,89.99
2019-03-06T22:52:39.915Z,89.89
2019-03-06T22:55:45.605Z,89.48
2019-03-06T22:58:50.966Z,91.14
2019-03-06T23:01:56.576Z,91.96
2019-03-06T23:05:01.895Z,91.30
2019-03-06T23:08:07.326Z,91.64
2019-03-06T23:11:12.594Z,91.48
2019-03-06T23:14:19.940Z,92.71
2019-03-06T23:17:24.963Z,92.97
2019-03-06T23:20:32.672Z,91.93
2019-03-06T23:23:37.905Z,91.35
2019-03-06T23:26:43.391Z,92.53
2019-03-06T23:29:49.090Z,93.45
2019-03-06T23:32:55.445Z,93.27
2019-03-06T23:36:00.758Z,95.58
2019-03-06T23:39:08.422Z,94.33
2019-03-06T23:42:14.202Z,94.28
2019-03-06T23:45:19.556Z,94.95
2019-03-06T23:48:24.892Z,93.16
2019-03-06T23:51:49.066Z,92.01
2019-03-06T23:54:54.379Z,92.20
2019-03-06T23:57:59.694Z,93.87
